Time;durP1;ratioP1;P1;durP2;ratioP2;P2;SDS_P1;SDS_P2;PMS_P1;PMS_P2;Temp;Humidity;BMP_temperature;BMP_pressure;BME280_temperature;BME280_humidity;BME280_pressure;Samples;Min_cycle;Max_cycle;Signal;HPM_P1;HPM_P2
2022/12/17 13:07:26;;;;;;;;;;;;;;;6.82;51.98;97364.63;4138112;28;5794;-73
2022/12/17 13:09:38;;;;;;;;;;;;;;;6.86;52.03;97361.53;4183366;28;5826;-74
2022/12/17 13:11:43;;;;;;;;;;;;;;;6.88;51.94;97367.44;4183574;28;5798;-74
2022/12/17 13:13:54;;;;;;;;;;;;;;;6.86;51.67;97358.88;4183165;28;5799;-73
2022/12/17 13:16:03;;;;;;;;;;;;;;;6.76;51.92;97355.53;4166608;28;6558;-73
2022/12/17 13:18:20;;;;;;;;;;;;;;;6.74;51.88;97351.44;4177635;28;5997;-73
2022/12/17 13:20:27;;;;;;;;;;;;;;;6.73;51.84;97350.59;4182963;28;5966;-73
2022/12/17 13:22:33;;;;;;;;;;;;;;;6.68;51.96;97348.47;4183540;28;5858;-73
2022/12/17 13:24:36;;;;;;;;;;;;;;;6.67;51.97;97352.03;4182431;28;5964;-73
2022/12/17 13:26:45;;;;;;;;;;;;;;;6.74;52.11;97356.69;4183146;28;6518;-73
2022/12/17 13:29:04;;;;;;;;;;;;;;;6.75;52.08;97359.16;4166061;28;5805;-73
2022/12/17 13:31:18;;;;;;;;;;;;;;;6.82;52.10;97354.94;4180489;28;5787;-73
2022/12/17 13:33:31;;;;;;;;;;;;;;;6.86;52.15;97358.88;4183067;28;5791;-74
2022/12/17 13:35:41;;;;;;;;;;;;;;;6.89;52.13;97357.75;4233112;28;5726;-73
2022/12/17 13:37:55;;;;;;;;;;;;;;;6.89;51.88;97355.94;4233504;28;5074;-74
2022/12/17 13:40:06;;;;;;;;;;;;;;;6.90;51.96;97357.59;4225743;28;5738;-73
2022/12/17 13:42:19;;;;;;;;;;;;;;;6.93;51.92;97357.28;4239405;27;6581;-74
2022/12/17 13:44:24;;;;;;;;;;;;;;;6.93;51.92;97367.81;4251800;27;6317;-73
2022/12/17 13:46:30;;;;;;;;;;;;;;;6.92;51.74;97371.41;4251914;27;5620;-73
2022/12/17 13:48:32;;;;;;;;;;;;;;;6.88;51.91;97370.06;4251904;27;5660;-72
2022/12/17 13:50:36;;;;;;;;;;;;;;;6.88;52.01;97370.06;4251742;27;5722;-73
2022/12/17 13:52:39;;;;;;;;;;;;;;;6.93;51.62;97377.50;4252186;27;5707;-73
2022/12/17 13:54:42;;;;;;;;;;;;;;;6.85;51.67;97375.63;4251889;27;6381;-73
2022/12/17 13:56:45;;;;;;;;;;;;;;;6.71;51.89;97379.66;4252083;27;5616;-73
2022/12/17 13:58:51;;;;;;;;;;;;;;;6.60;51.62;97379.09;4251582;27;5620;-74
2022/12/17 14:01:05;;;;;;;;;;;;;;;6.63;52.06;97373.53;4251935;27;5123;-73
2022/12/17 14:03:11;;;;;;;;;;;;;;;6.61;51.92;97378.13;4252000;27;7683;-73
2022/12/17 14:05:24;;;;;;;;;;;;;;;6.65;52.19;97379.44;4252030;27;5628;-73
2022/12/17 14:07:28;;;;;;;;;;;;;;;6.68;51.95;97381.75;4250469;27;5764;-74
2022/12/17 14:09:34;;;;;;;;;;;;;;;6.68;51.88;97380.00;4252500;27;5748;-73
2022/12/17 14:13:58;;;;;;;;;;;;;;;6.62;51.82;97383.22;4237160;27;5779;-75
2022/12/17 14:16:01;;;;;;;;;;;;;;;6.61;52.02;97383.38;4235838;27;5719;-75
2022/12/17 14:18:07;;;;;;;;;;;;;;;6.60;51.87;97392.22;4248023;27;5603;-77
2022/12/17 14:20:15;;;;;;;;;;;;;;;6.66;52.05;97397.69;4250958;27;5635;-76
2022/12/17 14:22:23;;;;;;;;;;;;;;;6.73;51.81;97397.91;4251072;27;5644;-75
2022/12/17 14:24:28;;;;;;;;;;;;;;;6.70;51.51;97399.03;4249115;27;5829;-76
2022/12/17 14:26:31;;;;;;;;;;;;;;;6.70;51.88;97400.84;4248553;27;5632;-75
2022/12/17 14:28:37;;;;;;;;;;;;;;;6.76;51.69;97404.66;4243432;27;5620;-74
2022/12/17 14:30:42;;;;;;;;;;;;;;;6.70;51.54;97406.94;4250856;27;5711;-71
2022/12/17 14:33:24;;;;;;;;;;;;;;;6.61;51.87;97409.66;4242907;27;5739;-73
2022/12/17 14:35:30;;;;;;;;;;;;;;;6.59;51.90;97416.84;4239554;27;5751;-76
2022/12/17 14:37:33;;;;;;;;;;;;;;;6.55;51.92;97416.31;4252694;27;5754;-75
2022/12/17 14:39:35;;;;;;;;;;;;;;;6.56;51.75;97414.50;4247285;27;5917;-76
2022/12/17 14:44:01;;;;;;;;;;;;;;;6.53;51.90;97413.03;4247343;27;6533;-76
2022/12/17 14:46:22;;;;;;;;;;;;;;;6.53;51.75;97407.78;4250506;27;6838;-75
2022/12/17 14:48:59;;;;;;;;;;;;;;;6.53;51.88;97412.19;4251398;27;5624;-76
2022/12/17 14:50:56;;;;;;;;;;;;;;;6.47;52.07;97416.28;4250604;27;5618;-77
2022/12/17 14:53:00;;;;;;;;;;;;;;;6.46;51.79;97419.06;4251209;27;5649;-75
2022/12/17 14:55:22;;;;;;;;;;;;;;;6.43;51.75;97423.63;4261043;27;5639;-75
2022/12/17 14:57:25;;;;;;;;;;;;;;;6.44;51.70;97416.56;4246612;27;5818;-76
2022/12/17 14:59:32;;;;;;;;;;;;;;;6.41;51.88;97415.06;4239432;27;5680;-77
2022/12/17 15:01:35;;;;;;;;;;;;;;;6.42;51.93;97416.72;4233198;27;5645;-76
2022/12/17 15:03:41;;;;;;;;;;;;;;;6.44;51.88;97416.56;4228514;27;5892;-77
2022/12/17 15:05:53;;;;;;;;;;;;;;;6.37;51.66;97424.25;4242411;27;5654;-76
2022/12/17 15:07:57;;;;;;;;;;;;;;;6.33;52.05;97422.03;4242512;27;5598;-77
2022/12/17 15:10:00;;;;;;;;;;;;;;;6.33;51.83;97420.25;4235683;27;5864;-73
2022/12/17 15:12:03;;;;;;;;;;;;;;;6.33;51.96;97422.03;4225694;27;5855;-73
2022/12/17 15:14:06;;;;;;;;;;;;;;;6.33;51.82;97419.41;4241475;27;5720;-74
2022/12/17 15:16:09;;;;;;;;;;;;;;;6.34;51.93;97419.28;4240537;27;5640;-74
2022/12/17 15:18:13;;;;;;;;;;;;;;;6.39;51.82;97421.47;4256416;27;5788;-73
2022/12/17 15:20:17;;;;;;;;;;;;;;;6.40;51.79;97423.94;4253154;27;6424;-72
2022/12/17 15:22:20;;;;;;;;;;;;;;;6.45;51.64;97422.63;4253209;27;5673;-74
2022/12/17 15:24:24;;;;;;;;;;;;;;;6.47;51.60;97428.59;4252908;27;5632;-75
2022/12/17 15:26:27;;;;;;;;;;;;;;;6.46;51.78;97429.56;4252889;27;5631;-75
2022/12/17 15:28:30;;;;;;;;;;;;;;;6.47;51.68;97433.84;4252396;27;5695;-75
2022/12/17 15:30:33;;;;;;;;;;;;;;;6.49;51.63;97429.25;4253302;27;5607;-73
2022/12/17 15:32:38;;;;;;;;;;;;;;;6.48;51.48;97427.59;4252815;27;5703;-74
2022/12/17 15:34:41;;;;;;;;;;;;;;;6.45;51.71;97435.78;4258020;27;5599;-74
2022/12/17 15:36:44;;;;;;;;;;;;;;;6.50;51.49;97441.41;4252799;27;6305;-73
2022/12/17 15:38:46;;;;;;;;;;;;;;;6.51;51.62;97441.25;4252759;27;5616;-73
2022/12/17 15:40:51;;;;;;;;;;;;;;;6.56;51.40;97438.16;4244426;27;5587;-75
2022/12/17 15:43:11;;;;;;;;;;;;;;;6.57;51.52;97442.44;4253650;27;5611;-74
2022/12/17 15:45:14;;;;;;;;;;;;;;;6.61;51.45;97433.28;4252189;27;5662;-73
2022/12/17 15:47:17;;;;;;;;;;;;;;;6.61;51.66;97441.16;4252592;27;5792;-76
2022/12/17 15:49:20;;;;;;;;;;;;;;;6.64;51.61;97431.16;4251963;27;5764;-75
2022/12/17 15:51:22;;;;;;;;;;;;;;;6.66;51.58;97438.91;4254276;27;6333;-74
2022/12/17 15:53:25;;;;;;;;;;;;;;;6.65;51.46;97442.50;4253201;27;5624;-74
2022/12/17 15:55:29;;;;;;;;;;;;;;;6.63;51.38;97442.66;4253032;27;5628;-74
2022/12/17 15:57:33;;;;;;;;;;;;;;;6.54;51.46;97445.38;4252842;27;5082;-76
2022/12/17 15:59:36;;;;;;;;;;;;;;;6.47;51.33;97446.97;4253790;27;5723;-74
2022/12/17 16:01:39;;;;;;;;;;;;;;;6.46;51.74;97450.59;4252369;27;5722;-73
2022/12/17 16:03:42;;;;;;;;;;;;;;;6.48;51.60;97446.00;4251831;27;5742;-73
2022/12/17 16:05:45;;;;;;;;;;;;;;;6.49;51.57;97442.38;4252820;27;5971;-73
2022/12/17 16:07:48;;;;;;;;;;;;;;;6.51;51.54;97446.50;4243061;27;6658;-73
2022/12/17 16:09:50;;;;;;;;;;;;;;;6.46;51.50;97442.69;4251589;27;6341;-75
2022/12/17 16:11:54;;;;;;;;;;;;;;;6.46;51.43;97437.44;4251820;27;5710;-72
2022/12/17 16:14:00;;;;;;;;;;;;;;;6.47;51.36;97433.84;4251362;27;5623;-72
2022/12/17 16:16:03;;;;;;;;;;;;;;;6.50;51.70;97438.78;4251763;27;5742;-72
2022/12/17 16:18:06;;;;;;;;;;;;;;;6.51;51.36;97441.25;4251622;27;5789;-73
2022/12/17 16:20:10;;;;;;;;;;;;;;;6.53;51.64;97436.66;4251870;27;5620;-74
2022/12/17 16:22:13;;;;;;;;;;;;;;;6.55;51.40;97444.38;4251705;27;5617;-74
2022/12/17 16:24:15;;;;;;;;;;;;;;;6.57;51.38;97435.41;4250888;27;5806;-73
2022/12/17 16:26:18;;;;;;;;;;;;;;;6.54;51.37;97438.31;4247345;27;5783;-73
2022/12/17 16:28:21;;;;;;;;;;;;;;;6.54;51.27;97437.50;4251905;27;5719;-73
2022/12/17 16:30:25;;;;;;;;;;;;;;;6.49;51.28;97442.38;4251526;27;5714;-72
2022/12/17 16:32:28;;;;;;;;;;;;;;;6.43;51.49;97438.56;4251246;27;5745;-72
2022/12/17 16:34:38;;;;;;;;;;;;;;;6.42;51.46;97440.34;4251693;27;5632;-76
2022/12/17 16:36:41;;;;;;;;;;;;;;;6.40;51.40;97446.75;4252026;27;5707;-77
2022/12/17 16:38:45;;;;;;;;;;;;;;;6.44;51.65;97450.69;4248773;27;5846;-77
2022/12/17 16:40:48;;;;;;;;;;;;;;;6.49;51.76;97448.47;4249169;27;5878;-77
2022/12/17 16:42:51;;;;;;;;;;;;;;;6.49;51.47;97450.28;4250889;27;5624;-77
2022/12/17 16:44:55;;;;;;;;;;;;;;;6.51;51.76;97445.69;4251593;27;5734;-76
2022/12/17 16:47:00;;;;;;;;;;;;;;;6.53;51.50;97448.97;4251128;27;5888;-77
2022/12/17 16:49:05;;;;;;;;;;;;;;;6.52;51.51;97452.59;4246343;27;5821;-73
2022/12/17 16:51:16;;;;;;;;;;;;;;;6.57;51.45;97450.31;4249691;27;5719;-72
2022/12/17 16:53:31;;;;;;;;;;;;;;;6.55;51.34;97447.84;4239351;27;5127;-75
2022/12/17 16:55:33;;;;;;;;;;;;;;;6.55;51.37;97445.22;4243357;27;5638;-73
2022/12/17 16:57:36;;;;;;;;;;;;;;;6.57;51.33;97453.78;4250536;27;5723;-75
2022/12/17 16:59:39;;;;;;;;;;;;;;;6.61;51.07;97456.94;4248727;27;5639;-72
2022/12/17 17:01:45;;;;;;;;;;;;;;;6.57;51.24;97450.31;4250142;27;5714;-68
2022/12/17 17:03:49;;;;;;;;;;;;;;;6.57;51.47;97456.41;4242546;27;5829;-81
2022/12/17 17:05:52;;;;;;;;;;;;;;;6.54;51.50;97461.13;4241152;27;5795;-83
2022/12/17 17:07:55;;;;;;;;;;;;;;;6.56;51.58;97464.44;4247699;27;5612;-82
2022/12/17 17:09:58;;;;;;;;;;;;;;;6.55;51.45;97478.53;4251580;27;5639;-79
2022/12/17 17:12:01;;;;;;;;;;;;;;;6.54;51.51;97487.41;4252818;27;5612;-72
2022/12/17 17:14:05;;;;;;;;;;;;;;;6.55;51.53;97484.63;4250450;27;5660;-86
2022/12/17 17:16:10;;;;;;;;;;;;;;;6.50;51.23;97491.31;4252266;27;5719;-79
2022/12/17 17:18:13;;;;;;;;;;;;;;;6.46;51.33;97482.91;4249940;27;5835;-74
2022/12/17 17:20:18;;;;;;;;;;;;;;;6.51;51.45;97485.09;4250876;27;5749;-73
2022/12/17 17:22:20;;;;;;;;;;;;;;;6.54;51.43;97476.91;4247630;27;5848;-70
2022/12/17 17:24:24;;;;;;;;;;;;;;;6.57;51.35;97489.72;4234585;27;5785;-77
2022/12/17 17:26:29;;;;;;;;;;;;;;;6.58;51.19;97488.78;4238171;27;5125;-77
2022/12/17 17:28:32;;;;;;;;;;;;;;;6.58;51.10;97480.88;4240909;27;5759;-77
2022/12/17 17:30:35;;;;;;;;;;;;;;;6.53;51.43;97480.50;4237978;27;5740;-77
2022/12/17 17:32:38;;;;;;;;;;;;;;;6.52;51.33;97487.56;4241389;27;5142;-77
2022/12/17 17:34:41;;;;;;;;;;;;;;;6.52;51.22;97489.34;4251881;27;6309;-78
2022/12/17 17:36:45;;;;;;;;;;;;;;;6.52;51.34;97489.34;4265994;27;5706;-77
2022/12/17 17:38:49;;;;;;;;;;;;;;;6.54;51.28;97490.84;4269997;27;5748;-77
2022/12/17 17:40:56;;;;;;;;;;;;;;;6.59;51.57;97486.00;4270698;27;5614;-76
2022/12/17 17:42:59;;;;;;;;;;;;;;;6.62;51.25;97484.84;4270258;27;5638;-78
2022/12/17 17:45:03;;;;;;;;;;;;;;;6.55;51.41;97471.47;4269655;27;5688;-78
2022/12/17 17:47:06;;;;;;;;;;;;;;;6.48;51.63;97482.78;4256295;27;5729;-77
2022/12/17 17:49:09;;;;;;;;;;;;;;;6.46;51.47;97489.97;4255976;27;5635;-77
2022/12/17 17:51:14;;;;;;;;;;;;;;;6.44;51.33;97495.34;4253036;27;5710;-77
2022/12/17 17:53:18;;;;;;;;;;;;;;;6.48;51.33;97494.09;4251282;27;5660;-77
2022/12/17 17:55:21;;;;;;;;;;;;;;;6.49;51.16;97489.66;4240359;27;5623;-77
2022/12/17 17:57:24;;;;;;;;;;;;;;;6.50;51.52;97494.78;4250773;27;5636;-77
2022/12/17 17:59:26;;;;;;;;;;;;;;;6.57;51.40;97502.84;4251579;27;5776;-77
2022/12/17 18:01:37;;;;;;;;;;;;;;;6.61;51.38;97499.78;4251322;27;5823;-77
2022/12/17 18:03:41;;;;;;;;;;;;;;;6.63;51.28;97505.72;4251637;27;5730;-77
2022/12/17 18:05:43;;;;;;;;;;;;;;;6.61;51.10;97512.09;4251537;27;5638;-77
2022/12/17 18:07:46;;;;;;;;;;;;;;;6.59;51.19;97501.75;4251767;27;5808;-77
2022/12/17 18:09:51;;;;;;;;;;;;;;;6.59;51.23;97504.38;4251292;27;5835;-77
2022/12/17 18:11:53;;;;;;;;;;;;;;;6.62;51.23;97511.94;4251362;27;5616;-78
2022/12/17 18:13:57;;;;;;;;;;;;;;;6.62;51.48;97511.94;4249319;27;5806;-77
2022/12/17 18:16:01;;;;;;;;;;;;;;;6.65;51.15;97510.81;4251007;27;5628;-77
2022/12/17 18:18:04;;;;;;;;;;;;;;;6.65;51.26;97516.06;4251233;27;5648;-77
2022/12/17 18:20:13;;;;;;;;;;;;;;;6.63;51.34;97508.34;4246579;27;5632;-77
2022/12/17 18:22:16;;;;;;;;;;;;;;;6.65;51.17;97521.31;4251447;27;5719;-77
2022/12/17 18:24:21;;;;;;;;;;;;;;;6.67;51.18;97516.75;4249945;27;5660;-77
2022/12/17 18:26:26;;;;;;;;;;;;;;;6.68;51.02;97513.13;4250224;27;5616;-77
2022/12/17 18:28:29;;;;;;;;;;;;;;;6.65;51.37;97516.91;4251373;27;5636;-78
2022/12/17 18:30:32;;;;;;;;;;;;;;;6.67;51.18;97519.38;4250849;27;5628;-77
2022/12/17 18:32:35;;;;;;;;;;;;;;;6.69;51.26;97512.19;4251073;27;5912;-76
2022/12/17 18:34:37;;;;;;;;;;;;;;;6.65;51.12;97516.06;4251369;27;5699;-77
2022/12/17 18:36:42;;;;;;;;;;;;;;;6.62;51.12;97516.38;4251465;27;5612;-76
2022/12/17 18:38:46;;;;;;;;;;;;;;;6.59;51.33;97519.31;4251327;27;5628;-76
2022/12/17 18:40:48;;;;;;;;;;;;;;;6.59;51.38;97529.81;4251261;27;5647;-76
2022/12/17 18:45:13;;;;;;;;;;;;;;;6.65;51.28;97526.59;4251024;27;5660;-77
2022/12/17 18:47:17;;;;;;;;;;;;;;;6.63;51.03;97534.63;4251100;27;5706;-77
2022/12/17 18:49:22;;;;;;;;;;;;;;;6.62;51.10;97540.03;4251047;27;5632;-76
2022/12/17 18:51:25;;;;;;;;;;;;;;;6.63;51.25;97541.69;4251302;27;5624;-77
2022/12/17 18:53:28;;;;;;;;;;;;;;;6.60;51.22;97534.09;4248203;27;5665;-77
2022/12/17 18:55:30;;;;;;;;;;;;;;;6.55;51.28;97539.78;4245900;27;5620;-76
2022/12/17 18:57:33;;;;;;;;;;;;;;;6.55;51.20;97538.97;4249473;27;5059;-77
2022/12/17 18:59:39;;;;;;;;;;;;;;;6.55;51.28;97533.72;4246636;27;7679;-77
2022/12/17 19:01:42;;;;;;;;;;;;;;;6.54;51.30;97555.69;4246349;27;5699;-76
2022/12/17 19:03:45;;;;;;;;;;;;;;;6.51;51.23;97554.22;4249652;27;5747;-77
2022/12/17 19:05:48;;;;;;;;;;;;;;;6.48;51.37;97556.31;4232090;27;6645;-76
2022/12/17 19:07:56;;;;;;;;;;;;;;;6.47;51.40;97560.75;4248679;27;5707;-77
2022/12/17 19:09:58;;;;;;;;;;;;;;;6.49;51.36;97555.34;4248329;27;5711;-76
2022/12/17 19:12:02;;;;;;;;;;;;;;;6.52;51.50;97557.66;4249582;27;5632;-76
2022/12/17 19:14:04;;;;;;;;;;;;;;;6.56;51.27;97559.81;4248952;27;5714;-75
2022/12/17 19:16:11;;;;;;;;;;;;;;;6.56;51.26;97554.56;4249328;27;5782;-76
2022/12/17 19:18:13;;;;;;;;;;;;;;;6.54;51.21;97560.94;4249532;27;5715;-77
2022/12/17 19:20:18;;;;;;;;;;;;;;;6.52;51.37;97562.91;4249234;27;5613;-76
2022/12/17 19:22:20;;;;;;;;;;;;;;;6.51;51.38;97572.59;4249364;27;5640;-77
2022/12/17 19:24:23;;;;;;;;;;;;;;;6.54;51.30;97579.34;4249483;27;5726;-77
2022/12/17 19:26:27;;;;;;;;;;;;;;;6.57;51.39;97581.66;4249130;27;5707;-76
2022/12/17 19:28:30;;;;;;;;;;;;;;;6.59;51.24;97582.38;4249600;27;5691;-76
2022/12/17 19:30:32;;;;;;;;;;;;;;;6.57;51.25;97585.16;4249297;27;5633;-77
2022/12/17 19:32:36;;;;;;;;;;;;;;;6.61;51.47;97573.34;4249255;27;5612;-76
2022/12/17 19:34:39;;;;;;;;;;;;;;;6.62;51.17;97580.25;4247826;27;5644;-77
2022/12/17 19:36:42;;;;;;;;;;;;;;;6.62;51.22;97582.06;4249567;27;6451;-77
2022/12/17 19:38:46;;;;;;;;;;;;;;;6.66;51.20;97586.84;4252815;27;5836;-76
2022/12/17 19:40:51;;;;;;;;;;;;;;;6.62;51.01;97582.06;4252325;27;5805;-77
2022/12/17 19:42:54;;;;;;;;;;;;;;;6.62;51.25;97588.16;4252196;27;6470;-77
2022/12/17 19:44:57;;;;;;;;;;;;;;;6.64;51.34;97588.00;4252242;27;5763;-76
2022/12/17 19:47:00;;;;;;;;;;;;;;;6.67;51.36;97593.75;4252073;27;5712;-76
2022/12/17 19:49:09;;;;;;;;;;;;;;;6.70;51.09;97598.75;4252261;27;5636;-75
2022/12/17 19:51:14;;;;;;;;;;;;;;;6.74;51.19;97603.69;4252233;27;5653;-76
2022/12/17 19:53:18;;;;;;;;;;;;;;;6.69;50.97;97612.03;4252219;27;5643;-76
2022/12/17 19:55:21;;;;;;;;;;;;;;;6.70;51.07;97605.81;4252134;27;5623;-76
2022/12/17 19:57:24;;;;;;;;;;;;;;;6.73;51.25;97602.88;4241655;27;5739;-76
2022/12/17 19:59:27;;;;;;;;;;;;;;;6.75;51.17;97608.78;4244348;27;5754;-86
2022/12/17 20:01:31;;;;;;;;;;;;;;;6.74;51.20;97603.69;4242391;27;6750;-79
2022/12/17 20:03:34;;;;;;;;;;;;;;;6.75;51.07;97616.69;4242270;27;5733;-77
2022/12/17 20:05:42;;;;;;;;;;;;;;;6.74;51.25;97611.56;4241690;27;5104;-77
2022/12/17 20:07:45;;;;;;;;;;;;;;;6.74;51.04;97615.03;4244282;27;5800;-77
2022/12/17 20:09:48;;;;;;;;;;;;;;;6.75;51.25;97621.09;4242015;27;5707;-77
2022/12/17 20:11:51;;;;;;;;;;;;;;;6.74;51.06;97632.59;4249954;27;5731;-78
2022/12/17 20:13:54;;;;;;;;;;;;;;;6.71;51.25;97625.84;4243838;27;5764;-76
2022/12/17 20:16:03;;;;;;;;;;;;;;;6.69;51.07;97633.06;4241078;27;5777;-77
2022/12/17 20:18:05;;;;;;;;;;;;;;;6.68;51.38;97640.13;4243524;27;5795;-86
2022/12/17 20:20:09;;;;;;;;;;;;;;;6.74;51.27;97638.69;4243477;27;5737;-77
2022/12/17 20:22:13;;;;;;;;;;;;;;;6.75;51.02;97629.00;4241777;27;5741;-79
2022/12/17 20:24:17;;;;;;;;;;;;;;;6.76;51.31;97630.66;4242088;27;5677;-71
2022/12/17 20:26:20;;;;;;;;;;;;;;;6.75;51.06;97619.31;4239336;27;5918;-71
2022/12/17 20:28:22;;;;;;;;;;;;;;;6.76;50.92;97620.97;4243013;27;5646;-71
2022/12/17 20:30:25;;;;;;;;;;;;;;;6.74;50.88;97620.28;4250657;27;5583;-76
2022/12/17 20:32:28;;;;;;;;;;;;;;;6.73;51.00;97621.25;4253094;27;5632;-77
2022/12/17 20:34:31;;;;;;;;;;;;;;;6.69;51.03;97627.81;4248787;27;5612;-73
2022/12/17 20:36:35;;;;;;;;;;;;;;;6.64;50.99;97630.03;4252549;27;5631;-72
2022/12/17 20:38:40;;;;;;;;;;;;;;;6.58;51.24;97635.88;4251732;27;5731;-71
2022/12/17 20:40:43;;;;;;;;;;;;;;;6.61;51.26;97635.59;4250788;27;5698;-68
2022/12/17 20:42:46;;;;;;;;;;;;;;;6.66;51.07;97642.03;4241740;27;5676;-68
2022/12/17 20:44:49;;;;;;;;;;;;;;;6.68;51.11;97641.88;4252091;27;5837;-67
2022/12/17 20:46:55;;;;;;;;;;;;;;;6.70;51.10;97639.97;4244272;27;5706;-68
2022/12/17 20:48:59;;;;;;;;;;;;;;;6.69;51.18;97633.88;4252278;27;5719;-70
2022/12/17 20:51:05;;;;;;;;;;;;;;;6.70;51.13;97624.19;4248370;27;5628;-73
2022/12/17 20:53:08;;;;;;;;;;;;;;;6.74;51.17;97629.97;4241618;27;5775;-73
2022/12/17 20:55:12;;;;;;;;;;;;;;;6.79;51.07;97639.03;4249743;27;5779;-72
2022/12/17 20:57:14;;;;;;;;;;;;;;;6.79;51.18;97641.69;4256032;27;5620;-72
2022/12/17 20:59:19;;;;;;;;;;;;;;;6.78;51.03;97642.66;4252346;27;5571;-74
2022/12/17 21:01:23;;;;;;;;;;;;;;;6.79;50.96;97648.72;4253863;27;5651;-73
2022/12/17 21:03:26;;;;;;;;;;;;;;;6.81;51.02;97659.94;4252419;27;5643;-75
2022/12/17 21:05:29;;;;;;;;;;;;;;;6.80;50.93;97656.50;4251204;27;5797;-73
2022/12/17 21:07:32;;;;;;;;;;;;;;;6.81;51.14;97657.31;4247016;27;5815;-74
2022/12/17 21:09:34;;;;;;;;;;;;;;;6.81;51.00;97667.84;4247107;27;6394;-73
2022/12/17 21:11:41;;;;;;;;;;;;;;;6.82;51.14;97659.78;4254646;27;5599;-67
2022/12/17 21:13:43;;;;;;;;;;;;;;;6.80;51.09;97669.63;4254941;27;5591;-67
2022/12/17 21:15:48;;;;;;;;;;;;;;;6.82;51.14;97667.69;4250763;27;5778;-66
2022/12/17 21:17:51;;;;;;;;;;;;;;;6.84;50.92;97673.63;4237960;27;5763;-71
2022/12/17 21:19:54;;;;;;;;;;;;;;;6.85;51.14;97662.13;4250551;27;5812;-70
2022/12/17 21:21:58;;;;;;;;;;;;;;;6.86;50.97;97653.25;4249623;27;5706;-69
2022/12/17 21:24:01;;;;;;;;;;;;;;;6.85;50.90;97664.75;4250282;27;5766;-68
2022/12/17 21:26:06;;;;;;;;;;;;;;;6.86;51.07;97661.16;4244133;27;5590;-68
2022/12/17 21:28:13;;;;;;;;;;;;;;;6.85;51.08;97669.19;4250601;27;5629;-68
2022/12/17 21:30:16;;;;;;;;;;;;;;;6.85;51.10;97656.88;4246449;27;5698;-68
2022/12/17 21:32:18;;;;;;;;;;;;;;;6.85;51.10;97666.56;4254171;27;5703;-71
2022/12/17 21:34:24;;;;;;;;;;;;;;;6.84;50.87;97657.84;4250971;27;5703;-70
2022/12/17 21:36:27;;;;;;;;;;;;;;;6.86;50.96;97674.28;4250896;27;5616;-76
2022/12/17 21:38:30;;;;;;;;;;;;;;;6.87;50.76;97678.56;4252240;27;5582;-76
2022/12/17 21:40:35;;;;;;;;;;;;;;;6.85;50.80;97677.88;4251421;27;5110;-76
2022/12/17 21:45:00;;;;;;;;;;;;;;;6.88;50.88;97685.47;4240744;27;7322;-73
2022/12/17 21:47:03;;;;;;;;;;;;;;;6.86;50.92;97671.66;4237442;27;5639;-69
2022/12/17 21:49:06;;;;;;;;;;;;;;;6.85;50.90;97674.44;4246490;27;5719;-68
2022/12/17 21:51:11;;;;;;;;;;;;;;;6.85;50.96;97672.63;4250923;27;5721;-75
2022/12/17 21:53:15;;;;;;;;;;;;;;;6.86;50.88;97669.03;4250884;27;5616;-78
2022/12/17 21:55:18;;;;;;;;;;;;;;;6.87;50.87;97670.69;4251055;27;5718;-76
2022/12/17 21:57:21;;;;;;;;;;;;;;;6.89;51.04;97667.91;4247448;27;5644;-73
2022/12/17 21:59:24;;;;;;;;;;;;;;;6.89;50.91;97665.28;4242022;27;5632;-70
2022/12/17 22:01:30;;;;;;;;;;;;;;;6.89;51.14;97663.47;4249161;27;5798;-69
2022/12/17 22:03:33;;;;;;;;;;;;;;;6.89;51.07;97663.47;4250061;27;5711;-68
2022/12/17 22:05:37;;;;;;;;;;;;;;;6.89;51.03;97660.00;4260829;27;5706;-72
2022/12/17 22:07:39;;;;;;;;;;;;;;;6.88;51.06;97653.94;4251432;27;5644;-71
2022/12/17 22:09:49;;;;;;;;;;;;;;;6.89;51.12;97660.00;4247749;27;5620;-66
2022/12/17 22:14:32;;;;;;;;;;;;;;;6.90;50.94;97656.41;4249679;27;5714;-67
2022/12/17 22:16:40;;;;;;;;;;;;;;;6.89;50.94;97660.00;4248531;27;5632;-68
2022/12/17 22:18:43;;;;;;;;;;;;;;;6.89;50.91;97666.09;4249381;27;5707;-68
2022/12/17 22:20:56;;;;;;;;;;;;;;;6.90;50.94;97666.91;4245468;27;5782;-70
2022/12/17 22:22:59;;;;;;;;;;;;;;;6.91;50.92;97672.06;4249454;27;5616;-68
2022/12/17 22:25:02;;;;;;;;;;;;;;;6.89;51.11;97671.34;4251062;27;5628;-73
2022/12/17 22:27:12;;;;;;;;;;;;;;;6.86;51.34;97666.41;4251273;27;6341;-74
